Kenton, DE (19955)

01:08 EST le 29 novembre 2014 (GMT -0500)
Northridge | Change Station
CLOSE
Current Station
Stations météorologiques personnelles
Location: Smyrna, DE
Altitude: 26 ft
Stations météo à proximité

Alt. 26 ft 39.25 °N, 75.60 °W | Updated 5 seconds ago

Ciel dégagé
Ciel dégagé
25.3 ° F
Paraît 25 ° F
N
0.0
Vent Variable Vent de SO
Gusts 0.0 mph

Aujourd'hui
Haut(e) -- | Bas -- ° F
--% Risque de précip.
Hier
Haut(e) -- | Bas -- ° F
Precip. -- pouce
7:01 AM 4:40 PM
Lune montante, 48% visible
Pression 30.30 pouce
Visibilité 10.0 Miles terrestres
Nuages Ciel dégagé
Refroidissement éolien 25 ° F
Point de rosée 22 ° F
Humidité 87%
Précipitations 0.00 pouce
Profondeur de la couche neigeuse Non disponible.
UV 0 sur 12
Pollen .10 sur 12
Qualité de l'air Non disponible.
Flu Activity Non disponible.
METAR KDOV 290558Z AUTO 00000KT 10SM CLR M03/M07 A3029 RMK AO2 SLP261 T10341071 11000 21042 53003

More Conditions Fewer Conditions

Pression 30.30 pouce
Visibilité 10.0 Miles terrestres
Nuages Ciel dégagé
Refroidissement éolien 25 ° F
Point de rosée 22 ° F
Humidité 87%
Précipitations 0.00 pouce
Profondeur de la couche neigeuse Non disponible.
UV 0 sur 12
Pollen .10 sur 12
Qualité de l'air Non disponible.
Flu Activity Non disponible.
METAR KDOV 290558Z AUTO 00000KT 10SM CLR M03/M07 A3029 RMK AO2 SLP261 T10341071 11000 21042 53003

More Conditions Fewer Conditions

10-Day Weather Forecast

Almanac

Astronomie

Nov. 29, 2014 Lever Coucher
Temps réel
Crépuscule civil
Crépuscule nautique
Crépuscule astronomique
Lune
Durée de lumière visible
Longueur du jour
Tomorrow will be .
, % of the Moon is Illuminated

Extrêmes aujourd'hui

State Highs State Lows

Community

WunderPhotos

Upload Photos

1,774,424 Photos téléchargées !

WunderBlogs® & News

Nearby

Qualité de l'air

  Qualité de l'air Indice de la qualité de l'air Polluant
Not available.

Épaisseur de neige

Station Depth Altitude

Activité sismique

Ville Distance Mag. Time & Date
Minimum magnitude displayed is 2.5.

Températures des eaux côtières

Lieu Température

Stations météo à proximité